Time;durP1;ratioP1;P1;durP2;ratioP2;P2;SDS_P1;SDS_P2;PMS_P1;PMS_P2;Temp;Humidity;BMP_temperature;BMP_pressure;BME280_temperature;BME280_humidity;BME280_pressure;Samples;Min_cycle;Max_cycle;Signal;HPM_P1;HPM_P2
2023/01/21 00:00:32;;;;;;;2.59;1.71;;;;;;;1.08;54.73;101655.60;465235;114;922490;-68
2023/01/21 00:01:35;;;;;;;2.17;1.50;;;;;;;1.08;54.63;101653.77;465692;114;922553;-68
2023/01/21 00:02:38;;;;;;;2.97;1.86;;;;;;;1.08;54.63;101651.09;463852;114;922489;-68
2023/01/21 00:03:41;;;;;;;2.56;1.72;;;;;;;1.08;54.65;101660.98;459687;114;922527;-68
2023/01/21 00:04:45;;;;;;;2.67;1.81;;;;;;;1.09;54.64;101668.06;460752;114;922729;-68
2023/01/21 00:05:49;;;;;;;2.64;1.65;;;;;;;1.08;54.67;101661.83;459540;114;922836;-68
2023/01/21 00:06:52;;;;;;;2.49;1.76;;;;;;;1.08;54.53;101659.14;458129;114;922618;-68
2023/01/21 00:07:55;;;;;;;4.56;2.09;;;;;;;1.06;54.60;101658.41;460155;114;930332;-68
2023/01/21 00:08:58;;;;;;;3.21;1.97;;;;;;;1.05;54.52;101662.06;465693;114;922986;-68
2023/01/21 00:10:02;;;;;;;4.42;2.81;;;;;;;1.04;54.49;101652.33;463844;114;922642;-68
2023/01/21 00:11:06;;;;;;;2.49;2.13;;;;;;;1.05;54.49;101653.16;463241;114;922508;-68
2023/01/21 00:12:09;;;;;;;3.94;2.12;;;;;;;1.03;54.55;101661.36;458032;114;922615;-68
2023/01/21 00:13:12;;;;;;;2.58;1.89;;;;;;;1.03;54.57;101661.36;460845;114;923059;-69
2023/01/21 00:14:16;;;;;;;2.57;1.94;;;;;;;1.04;54.51;101659.53;466245;114;922581;-68
2023/01/21 00:15:19;;;;;;;2.52;2.07;;;;;;;1.03;54.50;101661.36;463794;112;922972;-69
2023/01/21 00:16:22;;;;;;;3.86;1.99;;;;;;;1.03;54.57;101655.13;464490;114;923171;-69
2023/01/21 00:17:25;;;;;;;2.79;1.89;;;;;;;1.03;54.44;101655.98;466210;114;922550;-69
2023/01/21 00:18:28;;;;;;;2.43;1.82;;;;;;;1.03;54.41;101655.98;464584;114;922975;-68
2023/01/21 00:19:32;;;;;;;2.66;2.01;;;;;;;1.02;54.42;101651.59;458802;114;922602;-68
2023/01/21 00:20:35;;;;;;;2.33;2.12;;;;;;;1.01;54.31;101660.63;462486;114;922433;-69
2023/01/21 00:21:38;;;;;;;2.50;1.91;;;;;;;0.99;54.28;101654.55;466289;114;923017;-68
2023/01/21 00:22:41;;;;;;;3.62;2.16;;;;;;;0.99;54.34;101665.29;466243;114;922532;-69
2023/01/21 00:23:45;;;;;;;3.98;1.76;;;;;;;0.99;54.36;101661.75;466254;114;922399;-69
2023/01/21 00:24:48;;;;;;;8.08;1.82;;;;;;;0.98;54.33;101658.20;462873;114;922488;-69
2023/01/21 00:25:58;;;;;;;4.19;2.04;;;;;;;0.97;54.27;101671.75;463839;114;922541;-69
2023/01/21 00:27:01;;;;;;;2.71;2.24;;;;;;;0.95;54.26;101662.95;462506;114;922843;-68
2023/01/21 00:28:05;;;;;;;2.80;2.11;;;;;;;0.93;54.29;101647.00;463879;114;922547;-69
2023/01/21 00:29:10;;;;;;;3.11;1.81;;;;;;;0.92;54.27;101652.48;463866;114;922788;-68
2023/01/21 00:30:14;;;;;;;2.89;2.12;;;;;;;0.90;54.19;101639.17;463650;114;922566;-69
2023/01/21 00:31:17;;;;;;;2.71;1.87;;;;;;;0.89;54.24;101647.34;465600;114;922880;-67
2023/01/21 00:32:21;;;;;;;3.23;2.04;;;;;;;0.87;54.13;101650.19;466186;114;930346;-68
2023/01/21 00:33:24;;;;;;;2.53;2.08;;;;;;;0.84;54.11;101645.91;466259;114;922887;-68
2023/01/21 00:34:27;;;;;;;3.10;2.07;;;;;;;0.81;54.13;101634.58;466181;114;922507;-68
2023/01/21 00:35:30;;;;;;;2.39;1.69;;;;;;;0.78;54.08;101646.41;459959;114;922759;-68
2023/01/21 00:36:33;;;;;;;2.76;1.66;;;;;;;0.75;54.10;101635.94;458111;114;922823;-68
2023/01/21 00:37:36;;;;;;;4.62;1.84;;;;;;;0.73;54.09;101645.08;459034;114;922969;-69
2023/01/21 00:38:39;;;;;;;2.62;1.80;;;;;;;0.72;54.17;101644.22;458169;116;922889;-69
2023/01/21 00:39:43;;;;;;;3.33;1.90;;;;;;;0.71;54.20;101649.73;458074;116;923298;-68
2023/01/21 00:40:46;;;;;;;3.26;1.82;;;;;;;0.71;54.17;101641.69;458087;116;922767;-68
2023/01/21 00:41:49;;;;;;;2.12;1.92;;;;;;;0.71;54.15;101645.23;458118;114;922530;-68
2023/01/21 00:42:52;;;;;;;3.05;1.92;;;;;;;0.69;54.11;101624.84;458161;116;922483;-68
2023/01/21 00:43:56;;;;;;;3.65;2.11;;;;;;;0.68;54.18;101623.13;458149;116;922985;-68
2023/01/21 00:44:59;;;;;;;1.88;1.58;;;;;;;0.65;54.02;101618.88;458160;116;922541;-68
2023/01/21 00:46:02;;;;;;;2.51;1.88;;;;;;;0.63;54.00;101617.29;460479;114;922585;-68
2023/01/21 00:47:06;;;;;;;3.82;1.92;;;;;;;0.59;53.97;101613.16;466162;114;922524;-68
2023/01/21 00:48:09;;;;;;;2.59;1.79;;;;;;;0.57;54.05;101610.59;465246;114;922426;-67
2023/01/21 00:49:12;;;;;;;2.55;2.00;;;;;;;0.53;54.13;101614.52;463899;114;923054;-69
2023/01/21 00:50:15;;;;;;;2.46;1.97;;;;;;;0.51;54.13;101612.92;463898;114;923147;-68
2023/01/21 00:51:19;;;;;;;2.98;1.86;;;;;;;0.49;54.04;101610.38;463505;114;922404;-68
2023/01/21 00:52:22;;;;;;;2.36;1.76;;;;;;;0.47;54.02;101609.64;461868;115;922972;-67
2023/01/21 00:53:30;;;;;;;2.67;1.74;;;;;;;0.43;53.99;101616.24;461907;115;923018;-68
2023/01/21 00:54:33;;;;;;;2.62;1.63;;;;;;;0.40;54.04;101603.06;461765;115;922549;-68
2023/01/21 00:55:36;;;;;;;3.94;2.17;;;;;;;0.37;53.97;101608.69;459349;114;922529;-68
2023/01/21 00:56:40;;;;;;;2.24;1.72;;;;;;;0.33;54.05;101613.42;458087;112;922561;-69
2023/01/21 00:57:43;;;;;;;2.00;1.80;;;;;;;0.31;54.25;101611.86;459117;114;930321;-69
2023/01/21 00:58:46;;;;;;;2.82;1.81;;;;;;;0.29;54.32;101606.61;459303;114;922961;-69
2023/01/21 00:59:49;;;;;;;2.76;1.69;;;;;;;0.27;54.24;101611.27;458068;116;922883;-70
2023/01/21 01:01:04;;;;;;;2.48;1.83;;;;;;;0.26;54.28;101614.06;458331;114;922627;-69
2023/01/21 01:02:07;;;;;;;4.85;2.12;;;;;;;0.25;54.34;101610.53;463581;114;922567;-69
2023/01/21 01:03:11;;;;;;;2.26;1.66;;;;;;;0.24;54.38;101607.95;462027;113;922729;-69
2023/01/21 01:04:14;;;;;;;2.18;1.59;;;;;;;0.22;54.38;101616.12;460175;114;922465;-69
2023/01/21 01:05:18;;;;;;;4.09;2.11;;;;;;;0.21;54.45;101625.17;463866;114;922449;-68
2023/01/21 01:06:23;;;;;;;3.55;1.72;;;;;;;0.21;54.52;101619.80;463457;113;922901;-68
2023/01/21 01:07:26;;;;;;;2.31;1.85;;;;;;;0.21;54.68;101610.91;462606;114;930301;-69
2023/01/21 01:08:29;;;;;;;1.79;1.60;;;;;;;0.22;54.71;101610.75;462766;114;930225;-69
2023/01/21 01:09:33;;;;;;;3.23;1.97;;;;;;;0.23;54.61;101600.88;463689;114;922954;-69
2023/01/21 01:10:36;;;;;;;2.72;1.81;;;;;;;0.22;54.66;101624.16;459217;114;922578;-70
2023/01/21 01:11:39;;;;;;;2.72;1.65;;;;;;;0.22;54.61;101610.75;460143;114;930308;-69
2023/01/21 01:12:43;;;;;;;2.53;1.68;;;;;;;0.21;54.57;101611.76;460409;114;922507;-69
2023/01/21 01:13:46;;;;;;;2.46;1.62;;;;;;;0.20;54.68;101612.73;458165;116;922586;-69
2023/01/21 01:14:49;;;;;;;1.77;1.62;;;;;;;0.20;54.67;101609.19;458177;116;922470;-68
2023/01/21 01:15:56;;;;;;;2.16;1.45;;;;;;;0.19;54.69;101618.20;459191;114;922552;-68
2023/01/21 01:16:59;;;;;;;2.72;1.72;;;;;;;0.18;54.75;101600.41;458012;116;922529;-68
2023/01/21 01:18:02;;;;;;;1.75;1.45;;;;;;;0.19;54.79;101618.20;458307;114;922955;-68
2023/01/21 01:19:05;;;;;;;2.87;1.67;;;;;;;0.18;54.85;101613.81;459420;114;922553;-69
2023/01/21 01:20:10;;;;;;;2.61;1.73;;;;;;;0.18;54.90;101616.49;458088;116;922584;-68
2023/01/21 01:21:16;;;;;;;2.78;1.85;;;;;;;0.17;54.85;101617.47;463645;114;922831;-68
2023/01/21 01:22:19;;;;;;;2.37;2.16;;;;;;;0.16;54.92;101621.14;463613;114;922645;-69
2023/01/21 01:23:22;;;;;;;3.05;1.90;;;;;;;0.14;54.92;101618.58;463435;114;923126;-69
2023/01/21 01:24:25;;;;;;;1.99;1.53;;;;;;;0.10;54.86;101606.41;463208;114;922466;-69
2023/01/21 01:25:28;;;;;;;2.65;2.03;;;;;;;0.08;54.92;101613.70;463244;114;922548;-69
2023/01/21 01:26:34;;;;;;;3.49;2.16;;;;;;;0.07;54.96;101608.45;463165;114;922477;-69
2023/01/21 01:27:37;;;;;;;2.51;2.10;;;;;;;0.04;55.01;101598.84;463034;114;922532;-69
2023/01/21 01:28:40;;;;;;;3.15;1.85;;;;;;;0.02;55.03;101605.28;463202;114;922795;-69
2023/01/21 01:29:43;;;;;;;2.21;1.94;;;;;;;-0.01;54.99;101609.94;469550;112;922863;-67
2023/01/21 01:30:47;;;;;;;2.71;1.72;;;;;;;-0.03;55.08;101602.98;470174;112;922931;-69
2023/01/21 01:31:50;;;;;;;2.98;1.91;;;;;;;-0.05;55.15;101607.59;463201;114;922596;-69
2023/01/21 01:32:53;;;;;;;2.46;1.89;;;;;;;-0.07;55.14;101605.06;463254;114;922487;-69
2023/01/21 01:33:56;;;;;;;2.20;1.95;;;;;;;-0.08;55.19;101599.81;463237;114;922933;-68
2023/01/21 01:34:59;;;;;;;2.24;1.88;;;;;;;-0.11;55.22;101608.11;463144;114;922854;-68
2023/01/21 01:36:05;;;;;;;2.54;2.06;;;;;;;-0.13;55.39;101604.69;463241;114;922497;-69
2023/01/21 01:37:08;;;;;;;2.46;1.96;;;;;;;-0.15;55.37;101601.27;463058;114;922558;-67
2023/01/21 01:38:14;;;;;;;2.70;1.89;;;;;;;-0.16;55.54;101608.45;467009;112;922653;-68
2023/01/21 01:39:17;;;;;;;2.95;2.19;;;;;;;-0.16;55.53;101599.55;465748;112;922592;-68
2023/01/21 01:40:39;;;;;;;2.37;1.82;;;;;;;-0.16;55.61;101612.95;463080;114;922935;-68
2023/01/21 01:41:42;;;;;;;3.32;1.93;;;;;;;-0.17;55.64;101617.48;467720;112;922492;-68
2023/01/21 01:42:45;;;;;;;2.59;1.99;;;;;;;-0.19;55.78;101610.53;471449;112;930452;-68
2023/01/21 01:43:55;;;;;;;3.10;2.11;;;;;;;-0.20;55.71;101614.17;463720;112;922945;-69
2023/01/21 01:45:04;;;;;;;3.07;2.01;;;;;;;-0.20;55.87;101614.17;466375;112;922479;-68
2023/01/21 01:46:08;;;;;;;3.23;2.01;;;;;;;-0.21;55.90;101615.14;460993;114;922589;-69
2023/01/21 01:47:12;;;;;;;2.29;2.09;;;;;;;-0.22;55.94;101608.09;463190;114;930349;-69
2023/01/21 01:48:21;;;;;;;3.78;2.33;;;;;;;-0.22;55.92;101624.18;455778;113;922648;-68
2023/01/21 01:49:25;;;;;;;2.34;2.14;;;;;;;-0.23;56.06;101612.60;463866;112;922564;-68
2023/01/21 01:50:31;;;;;;;3.49;2.26;;;;;;;-0.22;56.11;101618.82;463256;112;922872;-68
2023/01/21 01:51:47;;;;;;;2.38;1.98;;;;;;;-0.21;56.23;101621.36;463321;112;922690;-68
2023/01/21 01:52:50;;;;;;;2.67;2.38;;;;;;;-0.21;56.21;101610.63;466537;112;923102;-67
2023/01/21 01:53:53;;;;;;;5.10;2.39;;;;;;;-0.20;56.32;101615.03;463006;114;922405;-68
2023/01/21 01:55:00;;;;;;;2.52;2.29;;;;;;;-0.20;56.24;101614.17;466756;112;922795;-68
2023/01/21 01:56:03;;;;;;;3.22;2.67;;;;;;;-0.20;56.28;101600.77;463042;114;922516;-68
2023/01/21 01:57:09;;;;;;;4.11;2.66;;;;;;;-0.21;56.38;101604.42;466411;112;922466;-68
2023/01/21 01:58:15;;;;;;;2.99;2.70;;;;;;;-0.21;56.37;101605.28;471057;112;930459;-68
2023/01/21 01:59:18;;;;;;;3.32;2.61;;;;;;;-0.21;56.36;101594.56;471265;112;922566;-69
2023/01/21 02:00:23;;;;;;;3.92;2.87;;;;;;;-0.20;56.39;101611.49;464582;112;922507;-68
2023/01/21 02:01:26;;;;;;;4.39;2.82;;;;;;;-0.22;56.43;101598.20;471343;112;922555;-69
2023/01/21 02:02:30;;;;;;;3.20;2.65;;;;;;;-0.23;56.47;101593.84;467282;112;922603;-68
2023/01/21 02:03:43;;;;;;;3.47;2.89;;;;;;;-0.24;56.52;101586.77;463075;112;922456;-69
2023/01/21 02:04:55;;;;;;;2.80;2.31;;;;;;;-0.24;56.54;101597.49;465236;112;922484;-68
2023/01/21 02:05:58;;;;;;;5.29;2.87;;;;;;;-0.24;56.61;101594.81;466094;112;922674;-68
2023/01/21 02:07:02;;;;;;;3.67;2.79;;;;;;;-0.25;56.64;101586.88;463223;114;922560;-69
2023/01/21 02:08:06;;;;;;;4.18;3.03;;;;;;;-0.27;56.79;101603.08;463159;114;922522;-69
2023/01/21 02:09:09;;;;;;;4.02;2.58;;;;;;;-0.28;56.85;101582.64;466381;112;922973;-68
2023/01/21 02:10:15;;;;;;;3.99;3.34;;;;;;;-0.29;56.90;101594.33;464949;112;922549;-68
2023/01/21 02:11:20;;;;;;;3.22;2.86;;;;;;;-0.30;56.95;101597.97;465215;113;930473;-69
2023/01/21 02:12:23;;;;;;;4.01;3.32;;;;;;;-0.29;57.00;101593.47;465861;112;922598;-68
2023/01/21 02:13:30;;;;;;;3.43;2.95;;;;;;;-0.30;57.05;101597.11;468980;112;923072;-69
2023/01/21 02:14:41;;;;;;;3.91;3.04;;;;;;;-0.30;57.05;101597.11;463122;112;922442;-69
2023/01/21 02:16:02;;;;;;;3.97;2.96;;;;;;;-0.30;57.17;101592.61;463035;112;922584;-69
2023/01/21 02:17:17;;;;;;;5.77;3.43;;;;;;;-0.29;57.15;101596.14;462636;114;922859;-68
2023/01/21 02:18:33;;;;;;;4.13;3.45;;;;;;;-0.31;57.33;101595.40;462499;112;923017;-68
2023/01/21 02:19:48;;;;;;;4.13;3.48;;;;;;;-0.30;57.43;101581.03;458685;114;922754;-68
2023/01/21 02:21:04;;;;;;;4.04;3.69;;;;;;;-0.31;57.40;101595.40;463183;114;922600;-68
2023/01/21 02:22:29;;;;;;;4.18;3.71;;;;;;;-0.32;57.51;101588.33;462147;112;922456;-68
2023/01/21 02:23:38;;;;;;;3.72;3.25;;;;;;;-0.33;57.60;101583.97;462404;114;922607;-69
2023/01/21 02:25:03;;;;;;;5.82;4.45;;;;;;;-0.33;57.63;101586.66;463564;112;922875;-68
2023/01/21 02:26:25;;;;;;;4.04;3.66;;;;;;;-0.35;57.77;101591.27;460420;113;922697;-69
2023/01/21 02:27:53;;;;;;;3.90;3.46;;;;;;;-0.36;57.74;101587.73;455849;115;922882;-68
2023/01/21 02:29:16;;;;;;;5.56;4.37;;;;;;;-0.39;57.80;101581.77;462870;114;923016;-68
2023/01/21 02:30:34;;;;;;;4.13;3.49;;;;;;;-0.43;58.03;101595.38;461796;114;922931;-68
2023/01/21 02:32:07;;;;;;;3.81;3.51;;;;;;;-0.45;58.04;101589.31;468673;112;922464;-68
2023/01/21 02:33:13;;;;;;;6.91;4.40;;;;;;;-0.45;58.12;101589.31;467402;112;922655;-68
2023/01/21 02:34:49;;;;;;;4.43;3.97;;;;;;;-0.45;58.17;101589.31;462060;114;922501;-68
2023/01/21 02:36:11;;;;;;;4.20;3.84;;;;;;;-0.46;58.24;101587.60;463433;112;922989;-68
2023/01/21 02:37:30;;;;;;;4.44;4.03;;;;;;;-0.47;58.36;101582.36;460000;114;922534;-69
2023/01/21 02:38:39;;;;;;;4.79;4.37;;;;;;;-0.47;58.44;101579.67;462888;114;922476;-69
2023/01/21 02:39:52;;;;;;;5.21;3.88;;;;;;;-0.48;58.49;101592.22;450953;113;923033;-68
2023/01/21 02:41:01;;;;;;;4.89;4.49;;;;;;;-0.50;58.49;101580.75;460086;115;922810;-69
2023/01/21 02:42:08;;;;;;;4.60;4.22;;;;;;;-0.50;58.54;101586.11;462483;112;922913;-69
2023/01/21 02:43:30;;;;;;;5.32;4.58;;;;;;;-0.50;58.61;101585.28;462821;114;922586;-68
2023/01/21 02:44:52;;;;;;;5.50;4.97;;;;;;;-0.50;58.62;101579.92;468740;112;922554;-69
2023/01/21 02:46:07;;;;;;;4.69;4.24;;;;;;;-0.52;58.73;101576.50;462877;114;922457;-68
2023/01/21 02:47:35;;;;;;;4.61;4.19;;;;;;;-0.56;58.75;101583.08;462445;114;922559;-68
2023/01/21 02:48:47;;;;;;;4.54;4.04;;;;;;;-0.58;58.85;101574.30;463765;112;922893;-68
2023/01/21 02:50:00;;;;;;;4.91;4.29;;;;;;;-0.59;59.02;101581.48;463126;112;922469;-69
2023/01/21 02:51:04;;;;;;;6.01;4.68;;;;;;;-0.61;59.02;101588.80;463088;114;922575;-68
2023/01/21 02:52:07;;;;;;;5.42;4.92;;;;;;;-0.61;59.14;101583.44;463188;114;922646;-68
2023/01/21 02:53:19;;;;;;;5.27;4.87;;;;;;;-0.62;59.13;101592.44;463068;114;930497;-68
2023/01/21 02:54:41;;;;;;;4.52;4.18;;;;;;;-0.61;59.14;101590.63;462838;114;922980;-68
2023/01/21 02:55:44;;;;;;;6.14;5.07;;;;;;;-0.61;59.24;101594.16;462711;112;922531;-68
2023/01/21 02:56:48;;;;;;;5.67;5.17;;;;;;;-0.62;59.19;101584.41;464446;112;922429;-67
2023/01/21 02:57:55;;;;;;;4.91;4.51;;;;;;;-0.62;59.22;101587.09;463204;114;923056;-67
2023/01/21 02:59:02;;;;;;;4.91;4.46;;;;;;;-0.62;59.34;101599.63;462983;114;922504;-67
2023/01/21 03:00:09;;;;;;;5.19;4.63;;;;;;;-0.61;59.35;101599.52;463126;112;922591;-68
2023/01/21 03:01:27;;;;;;;5.90;5.01;;;;;;;-0.60;59.40;101589.63;462751;112;922569;-68
2023/01/21 03:02:57;;;;;;;5.69;5.18;;;;;;;-0.59;59.42;101592.19;462959;114;922868;-68
2023/01/21 03:04:18;;;;;;;5.66;4.67;;;;;;;-0.57;59.46;101589.41;462989;114;922560;-69
2023/01/21 03:05:43;;;;;;;4.79;4.35;;;;;;;-0.56;59.47;101591.11;441448;119;922954;-69
2023/01/21 03:07:14;;;;;;;5.59;4.84;;;;;;;-0.55;59.55;101603.55;438771;112;922852;-69
2023/01/21 03:08:23;;;;;;;5.14;4.68;;;;;;;-0.56;59.52;101594.65;470803;112;922683;-68
2023/01/21 03:09:29;;;;;;;5.11;4.69;;;;;;;-0.55;59.56;101598.19;468657;112;922928;-68
2023/01/21 03:10:42;;;;;;;4.83;4.43;;;;;;;-0.54;59.72;101591.83;463265;112;922910;-68
2023/01/21 03:12:00;;;;;;;7.38;5.15;;;;;;;-0.54;59.77;101587.33;469694;112;922575;-68
2023/01/21 03:16:55;;;;;;;5.40;5.00;;;;;;;-0.52;59.79;101596.11;470897;112;922679;-69
2023/01/21 03:17:27;;;;;;;5.35;4.84;;;;;;;-0.47;59.73;101593.07;462909;114;922986;-68
2023/01/21 03:18:37;;;;;;;5.25;4.52;;;;;;;-0.45;59.84;101593.81;462423;112;922608;-68
2023/01/21 03:19:46;;;;;;;6.13;5.15;;;;;;;-0.45;59.69;101604.53;463179;112;922398;-68
2023/01/21 03:20:56;;;;;;;5.56;5.01;;;;;;;-0.44;59.73;101596.35;463567;112;922530;-68
2023/01/21 03:22:03;;;;;;;7.03;6.01;;;;;;;-0.42;59.81;101606.95;470738;112;922500;-68
2023/01/21 03:23:10;;;;;;;6.27;5.67;;;;;;;-0.42;59.83;101599.78;465439;112;922443;-68
2023/01/21 03:24:13;;;;;;;5.88;5.38;;;;;;;-0.40;59.68;101607.70;462076;114;922672;-68
2023/01/21 03:25:17;;;;;;;6.92;6.02;;;;;;;-0.38;59.67;101610.23;469513;112;922554;-68
2023/01/21 03:26:24;;;;;;;6.11;5.54;;;;;;;-0.39;59.70;101617.45;468745;112;922491;-68
2023/01/21 03:27:37;;;;;;;6.21;5.69;;;;;;;-0.26;59.77;101609.29;477140;110;946961;-68
2023/01/21 03:28:47;;;;;;;6.47;5.83;;;;;;;-0.36;59.78;101600.27;461680;114;922630;-68
2023/01/21 03:29:54;;;;;;;7.89;5.04;;;;;;;-0.36;59.75;101602.95;457203;114;922573;-69
2023/01/21 03:31:06;;;;;;;6.85;5.72;;;;;;;-0.36;59.74;101603.80;455151;116;922529;-69
2023/01/21 03:32:13;;;;;;;5.97;5.47;;;;;;;-0.37;59.64;101603.91;457143;116;922546;-68
2023/01/21 03:33:19;;;;;;;6.29;5.52;;;;;;;-0.40;59.65;101593.45;458356;115;922583;-69
2023/01/21 03:34:25;;;;;;;6.16;5.61;;;;;;;-0.43;59.63;101595.38;458396;115;923125;-69
2023/01/21 03:35:32;;;;;;;6.09;5.56;;;;;;;-0.44;59.74;101596.35;456579;116;922848;-69
2023/01/21 03:36:41;;;;;;;6.48;5.98;;;;;;;-0.45;59.78;101591.14;451815;116;922504;-69
2023/01/21 03:37:57;;;;;;;5.62;5.22;;;;;;;-0.48;59.81;101586.86;454598;116;922497;-68
2023/01/21 03:39:07;;;;;;;6.07;5.59;;;;;;;-0.48;59.76;101591.36;451856;116;922440;-69
2023/01/21 03:40:23;;;;;;;6.35;5.78;;;;;;;-0.51;59.82;101589.79;452612;116;922928;-68
2023/01/21 03:41:32;;;;;;;6.53;5.98;;;;;;;-0.52;59.94;101588.08;455672;116;923039;-69
2023/01/21 03:42:35;;;;;;;6.85;6.16;;;;;;;-0.53;59.94;101591.72;455411;116;923046;-69
2023/01/21 03:43:38;;;;;;;6.84;6.13;;;;;;;-0.55;59.96;101592.83;455346;116;922993;-68
2023/01/21 03:44:42;;;;;;;6.58;6.06;;;;;;;-0.56;60.14;101591.11;454728;116;922604;-69
2023/01/21 03:45:52;;;;;;;6.29;5.78;;;;;;;-0.56;60.15;101591.97;449662;118;922548;-69
2023/01/21 03:47:32;;;;;;;6.41;5.56;;;;;;;-0.57;60.17;101592.94;449411;116;930475;-69
2023/01/21 03:48:48;;;;;;;6.18;5.64;;;;;;;-0.57;60.20;101592.08;454084;116;922605;-69
2023/01/21 03:50:04;;;;;;;6.94;6.08;;;;;;;-0.57;60.28;101600.97;454843;116;922834;-67
2023/01/21 03:51:10;;;;;;;5.63;5.18;;;;;;;-0.57;60.37;101592.08;454973;115;922637;-69
2023/01/21 03:52:16;;;;;;;6.12;5.54;;;;;;;-0.59;60.44;101584.16;451477;115;922804;-69
2023/01/21 03:53:19;;;;;;;6.68;6.14;;;;;;;-0.58;60.49;101596.58;455700;116;922663;-68
2023/01/21 03:54:22;;;;;;;7.03;6.44;;;;;;;-0.58;60.53;101599.27;456608;116;922516;-69
2023/01/21 03:55:25;;;;;;;6.49;5.81;;;;;;;-0.56;60.54;101599.15;455397;116;922930;-69
2023/01/21 03:56:29;;;;;;;6.74;6.16;;;;;;;-0.55;60.62;101598.19;449640;118;922534;-68
2023/01/21 03:57:32;;;;;;;7.09;6.40;;;;;;;-0.54;60.54;101607.91;452954;115;922601;-68
2023/01/21 03:58:35;;;;;;;6.53;5.96;;;;;;;-0.52;60.59;101600.61;455780;116;922545;-68
2023/01/21 03:59:38;;;;;;;6.66;6.09;;;;;;;-0.50;60.58;101604.04;451502;114;922975;-69
2023/01/21 04:00:41;;;;;;;6.02;5.52;;;;;;;-0.51;60.65;101605.86;454545;115;923031;-69
2023/01/21 04:01:45;;;;;;;7.44;6.21;;;;;;;-0.50;60.58;101604.86;449738;116;922504;-68
2023/01/21 04:02:48;;;;;;;6.29;5.69;;;;;;;-0.50;60.67;101610.22;452118;115;922500;-69
2023/01/21 04:03:51;;;;;;;6.62;6.01;;;;;;;-0.49;60.67;101606.58;445136;119;922524;-68
2023/01/21 04:04:54;;;;;;;6.56;6.03;;;;;;;-0.49;60.62;101611.94;451331;117;922552;-68
2023/01/21 04:05:57;;;;;;;6.95;6.14;;;;;;;-0.48;60.65;101613.64;455790;115;922723;-68
2023/01/21 04:07:00;;;;;;;6.28;5.69;;;;;;;-0.45;60.66;101620.61;455733;116;922749;-68
2023/01/21 04:08:03;;;;;;;6.35;5.81;;;;;;;-0.45;60.73;101621.47;451876;116;922906;-69
2023/01/21 04:09:07;;;;;;;6.84;6.33;;;;;;;-0.45;60.74;101618.78;450138;116;922621;-68
2023/01/21 04:10:10;;;;;;;7.03;6.53;;;;;;;-0.44;60.69;101616.93;455558;114;922647;-68
2023/01/21 04:11:14;;;;;;;6.62;6.05;;;;;;;-0.43;60.72;101626.67;455792;116;930504;-68
2023/01/21 04:12:17;;;;;;;6.92;6.40;;;;;;;-0.42;60.82;101623.89;457505;116;925447;-69
2023/01/21 04:13:20;;;;;;;7.63;7.02;;;;;;;-0.40;60.71;101628.28;453573;116;922469;-68
2023/01/21 04:14:23;;;;;;;6.74;6.14;;;;;;;-0.40;60.76;101629.14;455370;116;922453;-69
2023/01/21 04:15:26;;;;;;;6.79;6.20;;;;;;;-0.38;60.74;101627.17;457504;116;922847;-68
2023/01/21 04:16:29;;;;;;;6.58;6.07;;;;;;;-0.36;60.84;101629.74;456949;115;923115;-69
2023/01/21 04:17:33;;;;;;;6.78;6.26;;;;;;;-0.34;60.75;101627.81;454724;116;922586;-69
2023/01/21 04:18:36;;;;;;;7.62;5.96;;;;;;;-0.34;60.84;101630.48;454254;116;923024;-69
2023/01/21 04:19:39;;;;;;;12.70;6.47;;;;;;;-0.33;60.73;101630.34;451561;114;922842;-68
2023/01/21 04:20:45;;;;;;;5.82;5.29;;;;;;;-0.31;60.75;101635.59;452572;116;922795;-69
2023/01/21 04:21:48;;;;;;;7.00;6.40;;;;;;;-0.32;60.78;101625.84;449830;116;922606;-69
2023/01/21 04:22:51;;;;;;;6.04;5.53;;;;;;;-0.34;60.75;101625.12;457140;116;922906;-68
2023/01/21 04:23:55;;;;;;;6.68;5.99;;;;;;;-0.34;60.75;101625.12;457550;116;922690;-69
2023/01/21 04:24:58;;;;;;;5.64;5.14;;;;;;;-0.35;60.70;101618.05;448472;116;922531;-68
2023/01/21 04:26:01;;;;;;;6.78;6.18;;;;;;;-0.36;60.67;101621.70;457594;115;922500;-68
2023/01/21 04:27:04;;;;;;;6.46;5.86;;;;;;;-0.39;60.73;101614.77;457521;115;922710;-68
2023/01/21 04:28:07;;;;;;;6.98;6.22;;;;;;;-0.39;60.81;101616.59;457495;116;922857;-68
2023/01/21 04:29:10;;;;;;;5.66;5.18;;;;;;;-0.43;60.74;101622.17;446077;119;923289;-68
2023/01/21 04:30:14;;;;;;;6.76;6.13;;;;;;;-0.43;60.81;101624.86;440126;120;922985;-68
2023/01/21 04:31:17;;;;;;;7.71;6.21;;;;;;;-0.43;60.90;101624.00;434615;121;923289;-68
2023/01/21 04:32:20;;;;;;;6.14;5.63;;;;;;;-0.42;60.86;101623.03;433815;119;922572;-68
2023/01/21 04:33:24;;;;;;;5.92;5.52;;;;;;;-0.42;60.90;101618.53;438265;119;922618;-69
2023/01/21 04:34:27;;;;;;;6.04;5.46;;;;;;;-0.41;61.05;101622.06;448072;118;922527;-69
2023/01/21 04:35:30;;;;;;;6.30;5.70;;;;;;;-0.39;60.95;101622.81;436554;119;922633;-67
2023/01/21 04:36:33;;;;;;;5.78;5.31;;;;;;;-0.38;60.95;101626.31;440515;119;922990;-71
2023/01/21 04:37:36;;;;;;;6.79;6.03;;;;;;;-0.38;60.96;101626.31;443041;119;923152;-68
2023/01/21 04:38:39;;;;;;;6.42;5.87;;;;;;;-0.37;60.92;101628.03;440232;118;922600;-68
2023/01/21 04:39:42;;;;;;;6.81;6.22;;;;;;;-0.37;60.99;101633.39;441956;118;922502;-69
2023/01/21 04:40:46;;;;;;;6.37;5.67;;;;;;;-0.36;61.03;101632.42;442329;120;922558;-68
2023/01/21 04:41:49;;;;;;;6.13;5.54;;;;;;;-0.36;61.13;101641.31;442712;120;922573;-68
2023/01/21 04:42:52;;;;;;;7.33;6.59;;;;;;;-0.35;61.14;101639.49;442667;120;922800;-68
2023/01/21 04:43:55;;;;;;;6.67;6.16;;;;;;;-0.35;61.05;101645.70;441409;118;930568;-68
2023/01/21 04:44:59;;;;;;;7.33;6.66;;;;;;;-0.34;61.02;101649.25;442593;120;922877;-68
2023/01/21 04:46:02;;;;;;;6.87;5.87;;;;;;;-0.32;61.13;101644.60;441595;120;922485;-69
2023/01/21 04:47:05;;;;;;;10.40;6.33;;;;;;;-0.32;61.16;101641.92;435513;122;922600;-68
2023/01/21 04:48:08;;;;;;;6.67;6.08;;;;;;;-0.32;61.11;101639.24;435551;122;922779;-69
2023/01/21 04:49:11;;;;;;;6.49;5.83;;;;;;;-0.30;61.11;101637.31;438664;120;922531;-69
2023/01/21 04:50:15;;;;;;;6.69;6.06;;;;;;;-0.30;61.15;101640.84;447849;118;922512;-68
2023/01/21 04:51:19;;;;;;;7.24;6.65;;;;;;;-0.28;61.19;101643.41;444485;118;923088;-69
2023/01/21 04:52:22;;;;;;;5.78;5.22;;;;;;;-0.27;61.18;101645.09;448213;118;922536;-69
2023/01/21 04:53:25;;;;;;;6.74;6.16;;;;;;;-0.25;61.28;101653.87;448221;118;922563;-67
2023/01/21 04:54:28;;;;;;;6.41;5.91;;;;;;;-0.23;61.21;101650.13;447740;118;922929;-68
2023/01/21 04:55:31;;;;;;;6.88;6.27;;;;;;;-0.21;61.17;101655.34;439169;120;922627;-68
2023/01/21 04:56:35;;;;;;;6.64;6.12;;;;;;;-0.20;61.22;101659.73;435556;122;922571;-68
2023/01/21 04:57:38;;;;;;;6.01;5.30;;;;;;;-0.20;61.17;101660.59;435555;122;922697;-68
2023/01/21 04:58:41;;;;;;;6.27;5.67;;;;;;;-0.18;61.19;101666.70;435557;122;922876;-68
2023/01/21 04:59:44;;;;;;;6.07;5.56;;;;;;;-0.16;61.19;101669.23;437911;120;922535;-68
2023/01/21 05:00:47;;;;;;;6.68;6.09;;;;;;;-0.16;61.11;101674.59;437493;120;922514;-68
2023/01/21 05:01:50;;;;;;;6.26;5.70;;;;;;;-0.15;61.12;101679.84;436319;120;922598;-68
2023/01/21 05:02:54;;;;;;;7.69;6.04;;;;;;;-0.14;61.05;101680.70;435545;120;923043;-68
2023/01/21 05:03:57;;;;;;;6.48;5.94;;;;;;;-0.14;61.04;101686.92;435679;120;922490;-68
2023/01/21 05:05:00;;;;;;;6.67;5.88;;;;;;;-0.13;61.12;101687.78;440328;120;922829;-68
2023/01/21 05:06:03;;;;;;;7.12;5.60;;;;;;;-0.14;61.13;101692.28;442930;120;922588;-68
2023/01/21 05:07:06;;;;;;;6.71;6.08;;;;;;;-0.13;61.14;101696.67;442913;120;922627;-68
2023/01/21 05:08:09;;;;;;;6.71;6.05;;;;;;;-0.11;61.19;101693.89;442935;120;922815;-69
2023/01/21 05:09:13;;;;;;;7.04;6.44;;;;;;;-0.08;61.18;101698.99;442868;120;922486;-68
2023/01/21 05:10:16;;;;;;;6.22;5.61;;;;;;;-0.06;61.15;101713.14;442656;120;922501;-67